sensor_id;sensor_type;location;lat;lon;timestamp;P1;durP1;ratioP1;P2;durP2;ratioP2
40669;SDS011;26355;45.528;9.234;2022-12-07T00:01:08;40.90;;;24.33;;
40669;SDS011;26355;45.528;9.234;2022-12-07T00:03:42;37.00;;;24.15;;
40669;SDS011;26355;45.528;9.234;2022-12-07T00:06:10;41.97;;;25.27;;
40669;SDS011;26355;45.528;9.234;2022-12-07T00:08:37;41.53;;;25.75;;
40669;SDS011;26355;45.528;9.234;2022-12-07T00:11:04;42.15;;;25.17;;
40669;SDS011;26355;45.528;9.234;2022-12-07T00:13:40;40.33;;;24.52;;
40669;SDS011;26355;45.528;9.234;2022-12-07T00:16:08;44.60;;;27.02;;
40669;SDS011;26355;45.528;9.234;2022-12-07T00:18:38;40.33;;;25.85;;
40669;SDS011;26355;45.528;9.234;2022-12-07T00:21:14;42.50;;;25.40;;
40669;SDS011;26355;45.528;9.234;2022-12-07T00:23:42;38.08;;;25.08;;
40669;SDS011;26355;45.528;9.234;2022-12-07T00:26:13;41.00;;;25.63;;
40669;SDS011;26355;45.528;9.234;2022-12-07T00:28:49;45.75;;;27.42;;
40669;SDS011;26355;45.528;9.234;2022-12-07T00:31:17;41.63;;;27.35;;
40669;SDS011;26355;45.528;9.234;2022-12-07T00:33:43;41.78;;;25.90;;
40669;SDS011;26355;45.528;9.234;2022-12-07T00:36:11;38.53;;;24.48;;
40669;SDS011;26355;45.528;9.234;2022-12-07T00:38:39;43.22;;;25.58;;
40669;SDS011;26355;45.528;9.234;2022-12-07T00:41:06;43.15;;;25.95;;
40669;SDS011;26355;45.528;9.234;2022-12-07T00:43:35;39.45;;;24.75;;
40669;SDS011;26355;45.528;9.234;2022-12-07T00:46:00;43.85;;;27.05;;
40669;SDS011;26355;45.528;9.234;2022-12-07T00:48:26;42.92;;;27.23;;
40669;SDS011;26355;45.528;9.234;2022-12-07T00:50:52;40.25;;;26.83;;
40669;SDS011;26355;45.528;9.234;2022-12-07T00:53:18;41.03;;;26.80;;
40669;SDS011;26355;45.528;9.234;2022-12-07T00:55:43;41.13;;;25.75;;
40669;SDS011;26355;45.528;9.234;2022-12-07T00:58:10;44.03;;;25.92;;
40669;SDS011;26355;45.528;9.234;2022-12-07T01:00:36;39.35;;;25.90;;
40669;SDS011;26355;45.528;9.234;2022-12-07T01:03:03;43.92;;;26.60;;
40669;SDS011;26355;45.528;9.234;2022-12-07T01:05:29;40.65;;;25.85;;
40669;SDS011;26355;45.528;9.234;2022-12-07T01:07:55;41.33;;;26.00;;
40669;SDS011;26355;45.528;9.234;2022-12-07T01:10:21;41.30;;;26.40;;
40669;SDS011;26355;45.528;9.234;2022-12-07T01:12:46;40.28;;;28.15;;
40669;SDS011;26355;45.528;9.234;2022-12-07T01:15:12;44.50;;;29.13;;
40669;SDS011;26355;45.528;9.234;2022-12-07T01:17:38;42.22;;;26.48;;
40669;SDS011;26355;45.528;9.234;2022-12-07T01:20:04;39.00;;;27.05;;
40669;SDS011;26355;45.528;9.234;2022-12-07T01:22:30;44.10;;;29.02;;
40669;SDS011;26355;45.528;9.234;2022-12-07T01:24:55;37.25;;;24.70;;
40669;SDS011;26355;45.528;9.234;2022-12-07T01:27:21;44.75;;;28.55;;
40669;SDS011;26355;45.528;9.234;2022-12-07T01:29:46;41.30;;;26.85;;
40669;SDS011;26355;45.528;9.234;2022-12-07T01:32:12;44.80;;;26.52;;
40669;SDS011;26355;45.528;9.234;2022-12-07T01:34:38;40.97;;;27.33;;
40669;SDS011;26355;45.528;9.234;2022-12-07T01:37:03;40.28;;;27.42;;
40669;SDS011;26355;45.528;9.234;2022-12-07T01:39:29;41.60;;;29.00;;
40669;SDS011;26355;45.528;9.234;2022-12-07T01:41:55;37.53;;;25.40;;
40669;SDS011;26355;45.528;9.234;2022-12-07T01:44:24;38.70;;;26.50;;
40669;SDS011;26355;45.528;9.234;2022-12-07T01:46:55;38.83;;;26.73;;
40669;SDS011;26355;45.528;9.234;2022-12-07T01:52:00;41.42;;;26.77;;
40669;SDS011;26355;45.528;9.234;2022-12-07T01:54:45;39.03;;;26.00;;
40669;SDS011;26355;45.528;9.234;2022-12-07T01:57:13;40.33;;;25.90;;
40669;SDS011;26355;45.528;9.234;2022-12-07T01:59:41;39.75;;;25.88;;
40669;SDS011;26355;45.528;9.234;2022-12-07T02:02:10;37.53;;;25.48;;
40669;SDS011;26355;45.528;9.234;2022-12-07T02:04:42;38.20;;;25.45;;
40669;SDS011;26355;45.528;9.234;2022-12-07T02:07:09;38.55;;;25.85;;
40669;SDS011;26355;45.528;9.234;2022-12-07T02:09:34;43.10;;;25.70;;
40669;SDS011;26355;45.528;9.234;2022-12-07T02:12:00;38.90;;;24.20;;
40669;SDS011;26355;45.528;9.234;2022-12-07T02:14:26;37.50;;;22.38;;
40669;SDS011;26355;45.528;9.234;2022-12-07T02:31:44;35.58;;;20.70;;
40669;SDS011;26355;45.528;9.234;2022-12-07T02:34:19;37.22;;;21.83;;
40669;SDS011;26355;45.528;9.234;2022-12-07T02:36:46;33.92;;;22.27;;
40669;SDS011;26355;45.528;9.234;2022-12-07T02:39:20;34.08;;;21.50;;
40669;SDS011;26355;45.528;9.234;2022-12-07T02:42:01;33.08;;;21.83;;
40669;SDS011;26355;45.528;9.234;2022-12-07T02:44:32;37.25;;;22.00;;
40669;SDS011;26355;45.528;9.234;2022-12-07T02:46:59;32.50;;;21.13;;
40669;SDS011;26355;45.528;9.234;2022-12-07T02:49:29;37.05;;;21.15;;
40669;SDS011;26355;45.528;9.234;2022-12-07T02:51:56;36.65;;;21.05;;
40669;SDS011;26355;45.528;9.234;2022-12-07T02:54:21;31.52;;;20.02;;
40669;SDS011;26355;45.528;9.234;2022-12-07T02:56:49;31.95;;;21.48;;
40669;SDS011;26355;45.528;9.234;2022-12-07T03:08:21;31.63;;;20.25;;
40669;SDS011;26355;45.528;9.234;2022-12-07T03:11:25;30.45;;;19.55;;
40669;SDS011;26355;45.528;9.234;2022-12-07T03:14:00;29.60;;;19.77;;
40669;SDS011;26355;45.528;9.234;2022-12-07T03:16:47;33.85;;;21.23;;
40669;SDS011;26355;45.528;9.234;2022-12-07T03:19:27;32.15;;;19.30;;
40669;SDS011;26355;45.528;9.234;2022-12-07T03:21:58;32.22;;;20.98;;
40669;SDS011;26355;45.528;9.234;2022-12-07T03:24:29;33.53;;;19.77;;
40669;SDS011;26355;45.528;9.234;2022-12-07T03:27:03;28.70;;;18.67;;
40669;SDS011;26355;45.528;9.234;2022-12-07T03:29:34;29.67;;;18.95;;
40669;SDS011;26355;45.528;9.234;2022-12-07T03:32:06;31.45;;;18.25;;
40669;SDS011;26355;45.528;9.234;2022-12-07T03:34:42;30.00;;;18.77;;
40669;SDS011;26355;45.528;9.234;2022-12-07T03:37:32;29.65;;;18.65;;
40669;SDS011;26355;45.528;9.234;2022-12-07T03:42:53;30.35;;;18.42;;
40669;SDS011;26355;45.528;9.234;2022-12-07T03:45:22;32.33;;;18.20;;
40669;SDS011;26355;45.528;9.234;2022-12-07T03:50:35;34.70;;;22.08;;
40669;SDS011;26355;45.528;9.234;2022-12-07T03:53:18;30.52;;;19.45;;
40669;SDS011;26355;45.528;9.234;2022-12-07T03:55:47;32.88;;;19.67;;
40669;SDS011;26355;45.528;9.234;2022-12-07T03:58:15;32.77;;;18.93;;
40669;SDS011;26355;45.528;9.234;2022-12-07T04:00:43;29.77;;;18.42;;
40669;SDS011;26355;45.528;9.234;2022-12-07T04:03:10;33.03;;;20.20;;
40669;SDS011;26355;45.528;9.234;2022-12-07T04:05:36;33.83;;;20.05;;
40669;SDS011;26355;45.528;9.234;2022-12-07T04:08:02;31.17;;;17.45;;
40669;SDS011;26355;45.528;9.234;2022-12-07T04:10:28;32.45;;;19.67;;
40669;SDS011;26355;45.528;9.234;2022-12-07T04:12:54;31.67;;;18.88;;
40669;SDS011;26355;45.528;9.234;2022-12-07T04:15:20;31.02;;;18.58;;
40669;SDS011;26355;45.528;9.234;2022-12-07T04:17:46;30.25;;;18.50;;
40669;SDS011;26355;45.528;9.234;2022-12-07T04:20:12;27.58;;;17.20;;
40669;SDS011;26355;45.528;9.234;2022-12-07T04:22:37;28.23;;;16.88;;
40669;SDS011;26355;45.528;9.234;2022-12-07T04:25:03;33.60;;;16.73;;
40669;SDS011;26355;45.528;9.234;2022-12-07T04:27:29;28.55;;;17.15;;
40669;SDS011;26355;45.528;9.234;2022-12-07T04:29:55;28.83;;;16.45;;
40669;SDS011;26355;45.528;9.234;2022-12-07T04:32:21;29.05;;;15.77;;
40669;SDS011;26355;45.528;9.234;2022-12-07T04:34:47;28.27;;;16.98;;
40669;SDS011;26355;45.528;9.234;2022-12-07T04:37:12;27.25;;;15.38;;
40669;SDS011;26355;45.528;9.234;2022-12-07T04:39:38;26.92;;;16.23;;
40669;SDS011;26355;45.528;9.234;2022-12-07T04:42:03;29.55;;;16.27;;
40669;SDS011;26355;45.528;9.234;2022-12-07T04:44:29;30.20;;;17.35;;
40669;SDS011;26355;45.528;9.234;2022-12-07T04:46:55;29.92;;;19.10;;
40669;SDS011;26355;45.528;9.234;2022-12-07T04:49:22;28.55;;;16.30;;
40669;SDS011;26355;45.528;9.234;2022-12-07T04:51:48;29.45;;;16.85;;
40669;SDS011;26355;45.528;9.234;2022-12-07T04:54:15;27.05;;;15.57;;
40669;SDS011;26355;45.528;9.234;2022-12-07T04:56:41;28.87;;;15.63;;
40669;SDS011;26355;45.528;9.234;2022-12-07T04:59:07;27.55;;;15.57;;
40669;SDS011;26355;45.528;9.234;2022-12-07T05:01:34;29.48;;;16.67;;
40669;SDS011;26355;45.528;9.234;2022-12-07T05:03:59;27.10;;;14.35;;
40669;SDS011;26355;45.528;9.234;2022-12-07T05:06:25;26.77;;;14.68;;
40669;SDS011;26355;45.528;9.234;2022-12-07T05:08:51;24.83;;;14.23;;
40669;SDS011;26355;45.528;9.234;2022-12-07T05:11:17;26.15;;;14.98;;
40669;SDS011;26355;45.528;9.234;2022-12-07T05:14:02;28.05;;;15.65;;
40669;SDS011;26355;45.528;9.234;2022-12-07T05:16:29;27.30;;;15.93;;
40669;SDS011;26355;45.528;9.234;2022-12-07T05:18:55;30.67;;;16.88;;
40669;SDS011;26355;45.528;9.234;2022-12-07T05:21:21;27.77;;;16.88;;
40669;SDS011;26355;45.528;9.234;2022-12-07T05:23:46;27.63;;;15.90;;
40669;SDS011;26355;45.528;9.234;2022-12-07T05:26:12;29.00;;;17.27;;
40669;SDS011;26355;45.528;9.234;2022-12-07T05:28:37;27.17;;;16.00;;
40669;SDS011;26355;45.528;9.234;2022-12-07T05:31:03;29.45;;;17.30;;
40669;SDS011;26355;45.528;9.234;2022-12-07T05:33:29;27.63;;;16.15;;
40669;SDS011;26355;45.528;9.234;2022-12-07T05:35:54;27.38;;;15.65;;
40669;SDS011;26355;45.528;9.234;2022-12-07T05:38:20;28.35;;;17.25;;
40669;SDS011;26355;45.528;9.234;2022-12-07T05:40:46;26.55;;;15.20;;
40669;SDS011;26355;45.528;9.234;2022-12-07T05:43:11;26.58;;;14.40;;
40669;SDS011;26355;45.528;9.234;2022-12-07T05:45:37;26.95;;;14.65;;
40669;SDS011;26355;45.528;9.234;2022-12-07T05:48:02;26.90;;;13.88;;
40669;SDS011;26355;45.528;9.234;2022-12-07T05:50:28;24.92;;;13.95;;
40669;SDS011;26355;45.528;9.234;2022-12-07T05:52:54;29.38;;;16.65;;
40669;SDS011;26355;45.528;9.234;2022-12-07T05:55:19;28.23;;;16.30;;
40669;SDS011;26355;45.528;9.234;2022-12-07T05:57:45;27.20;;;16.10;;
40669;SDS011;26355;45.528;9.234;2022-12-07T06:00:31;28.30;;;16.98;;
40669;SDS011;26355;45.528;9.234;2022-12-07T06:02:57;30.38;;;14.77;;
40669;SDS011;26355;45.528;9.234;2022-12-07T06:05:22;24.25;;;13.60;;
40669;SDS011;26355;45.528;9.234;2022-12-07T06:07:48;25.38;;;13.65;;
40669;SDS011;26355;45.528;9.234;2022-12-07T06:10:14;27.98;;;14.98;;
40669;SDS011;26355;45.528;9.234;2022-12-07T06:12:40;26.10;;;13.63;;
40669;SDS011;26355;45.528;9.234;2022-12-07T06:15:08;26.90;;;14.60;;
40669;SDS011;26355;45.528;9.234;2022-12-07T06:17:34;25.90;;;14.13;;
40669;SDS011;26355;45.528;9.234;2022-12-07T06:20:00;27.10;;;14.40;;
40669;SDS011;26355;45.528;9.234;2022-12-07T06:22:26;24.77;;;13.43;;
40669;SDS011;26355;45.528;9.234;2022-12-07T06:24:53;25.33;;;14.13;;
40669;SDS011;26355;45.528;9.234;2022-12-07T06:27:18;25.15;;;13.75;;
40669;SDS011;26355;45.528;9.234;2022-12-07T06:29:44;25.10;;;14.13;;
40669;SDS011;26355;45.528;9.234;2022-12-07T06:32:10;33.10;;;19.50;;
40669;SDS011;26355;45.528;9.234;2022-12-07T06:34:36;31.77;;;17.33;;
40669;SDS011;26355;45.528;9.234;2022-12-07T06:37:02;30.88;;;16.13;;
40669;SDS011;26355;45.528;9.234;2022-12-07T06:39:28;25.52;;;15.00;;
40669;SDS011;26355;45.528;9.234;2022-12-07T06:41:54;31.75;;;16.13;;
40669;SDS011;26355;45.528;9.234;2022-12-07T06:44:21;26.42;;;15.23;;
40669;SDS011;26355;45.528;9.234;2022-12-07T06:46:47;23.88;;;14.63;;
40669;SDS011;26355;45.528;9.234;2022-12-07T06:49:13;24.58;;;13.55;;
40669;SDS011;26355;45.528;9.234;2022-12-07T06:51:39;25.13;;;13.23;;
40669;SDS011;26355;45.528;9.234;2022-12-07T06:54:08;26.63;;;13.32;;
40669;SDS011;26355;45.528;9.234;2022-12-07T06:56:38;25.10;;;14.65;;
40669;SDS011;26355;45.528;9.234;2022-12-07T06:59:04;23.98;;;13.23;;
40669;SDS011;26355;45.528;9.234;2022-12-07T07:01:31;26.60;;;14.43;;
40669;SDS011;26355;45.528;9.234;2022-12-07T07:03:58;29.20;;;15.77;;
40669;SDS011;26355;45.528;9.234;2022-12-07T07:06:24;29.00;;;15.38;;
40669;SDS011;26355;45.528;9.234;2022-12-07T07:08:49;29.88;;;16.67;;
40669;SDS011;26355;45.528;9.234;2022-12-07T07:11:15;32.20;;;18.52;;
40669;SDS011;26355;45.528;9.234;2022-12-07T07:13:41;33.15;;;19.00;;
40669;SDS011;26355;45.528;9.234;2022-12-07T07:16:06;30.75;;;19.33;;
40669;SDS011;26355;45.528;9.234;2022-12-07T07:18:33;36.35;;;21.50;;
40669;SDS011;26355;45.528;9.234;2022-12-07T07:20:58;31.92;;;19.23;;
40669;SDS011;26355;45.528;9.234;2022-12-07T07:23:24;31.42;;;19.75;;
40669;SDS011;26355;45.528;9.234;2022-12-07T07:25:49;34.03;;;19.35;;
40669;SDS011;26355;45.528;9.234;2022-12-07T07:28:15;32.25;;;19.38;;
40669;SDS011;26355;45.528;9.234;2022-12-07T07:30:41;29.40;;;19.52;;
40669;SDS011;26355;45.528;9.234;2022-12-07T07:33:06;33.70;;;19.67;;
40669;SDS011;26355;45.528;9.234;2022-12-07T07:35:33;35.28;;;21.98;;
40669;SDS011;26355;45.528;9.234;2022-12-07T07:37:59;34.60;;;19.60;;
40669;SDS011;26355;45.528;9.234;2022-12-07T07:40:29;33.25;;;20.73;;
40669;SDS011;26355;45.528;9.234;2022-12-07T07:42:54;33.28;;;21.17;;
40669;SDS011;26355;45.528;9.234;2022-12-07T07:45:21;34.58;;;20.27;;
40669;SDS011;26355;45.528;9.234;2022-12-07T07:47:48;31.50;;;19.73;;
40669;SDS011;26355;45.528;9.234;2022-12-07T07:50:14;36.92;;;21.52;;
40669;SDS011;26355;45.528;9.234;2022-12-07T07:52:41;34.40;;;20.23;;
40669;SDS011;26355;45.528;9.234;2022-12-07T07:55:06;34.95;;;19.90;;
40669;SDS011;26355;45.528;9.234;2022-12-07T07:57:33;32.03;;;20.15;;
40669;SDS011;26355;45.528;9.234;2022-12-07T08:00:00;35.83;;;20.23;;
40669;SDS011;26355;45.528;9.234;2022-12-07T08:02:26;34.70;;;19.83;;
40669;SDS011;26355;45.528;9.234;2022-12-07T08:04:54;30.85;;;18.23;;
40669;SDS011;26355;45.528;9.234;2022-12-07T08:07:20;27.30;;;16.33;;
40669;SDS011;26355;45.528;9.234;2022-12-07T08:09:45;27.75;;;13.80;;
40669;SDS011;26355;45.528;9.234;2022-12-07T08:15:33;26.20;;;14.43;;
40669;SDS011;26355;45.528;9.234;2022-12-07T08:18:02;26.83;;;14.68;;
40669;SDS011;26355;45.528;9.234;2022-12-07T08:20:29;25.80;;;15.57;;
40669;SDS011;26355;45.528;9.234;2022-12-07T08:22:55;25.98;;;15.50;;
40669;SDS011;26355;45.528;9.234;2022-12-07T08:25:21;30.00;;;16.77;;
40669;SDS011;26355;45.528;9.234;2022-12-07T08:27:47;26.63;;;15.45;;
40669;SDS011;26355;45.528;9.234;2022-12-07T08:30:13;27.02;;;16.88;;
40669;SDS011;26355;45.528;9.234;2022-12-07T08:32:39;30.63;;;17.73;;
40669;SDS011;26355;45.528;9.234;2022-12-07T08:35:05;30.33;;;16.40;;
40669;SDS011;26355;45.528;9.234;2022-12-07T08:37:31;28.10;;;18.38;;
40669;SDS011;26355;45.528;9.234;2022-12-07T08:39:57;27.73;;;16.83;;
40669;SDS011;26355;45.528;9.234;2022-12-07T08:42:23;31.92;;;17.98;;
40669;SDS011;26355;45.528;9.234;2022-12-07T08:44:52;28.67;;;16.63;;
40669;SDS011;26355;45.528;9.234;2022-12-07T08:47:18;31.58;;;17.23;;
40669;SDS011;26355;45.528;9.234;2022-12-07T08:49:45;27.38;;;18.20;;
40669;SDS011;26355;45.528;9.234;2022-12-07T08:52:13;30.17;;;18.58;;
40669;SDS011;26355;45.528;9.234;2022-12-07T08:54:39;30.20;;;19.00;;
40669;SDS011;26355;45.528;9.234;2022-12-07T08:57:06;27.73;;;18.55;;
40669;SDS011;26355;45.528;9.234;2022-12-07T08:59:33;27.42;;;18.02;;
40669;SDS011;26355;45.528;9.234;2022-12-07T09:02:00;26.33;;;16.98;;
40669;SDS011;26355;45.528;9.234;2022-12-07T09:04:26;27.45;;;17.55;;
40669;SDS011;26355;45.528;9.234;2022-12-07T09:06:53;31.05;;;19.90;;
40669;SDS011;26355;45.528;9.234;2022-12-07T09:09:19;30.15;;;20.27;;
40669;SDS011;26355;45.528;9.234;2022-12-07T09:11:44;30.00;;;20.17;;
40669;SDS011;26355;45.528;9.234;2022-12-07T09:14:10;28.95;;;20.05;;
40669;SDS011;26355;45.528;9.234;2022-12-07T09:16:37;29.10;;;20.67;;
40669;SDS011;26355;45.528;9.234;2022-12-07T09:19:03;27.92;;;19.60;;
40669;SDS011;26355;45.528;9.234;2022-12-07T09:21:28;37.97;;;21.05;;
40669;SDS011;26355;45.528;9.234;2022-12-07T09:23:54;30.60;;;19.30;;
40669;SDS011;26355;45.528;9.234;2022-12-07T09:26:20;30.27;;;19.48;;
40669;SDS011;26355;45.528;9.234;2022-12-07T09:28:45;30.52;;;20.25;;
40669;SDS011;26355;45.528;9.234;2022-12-07T09:31:11;30.13;;;20.30;;
40669;SDS011;26355;45.528;9.234;2022-12-07T09:33:36;27.15;;;18.95;;
40669;SDS011;26355;45.528;9.234;2022-12-07T09:36:03;29.80;;;19.27;;
40669;SDS011;26355;45.528;9.234;2022-12-07T09:38:29;27.08;;;18.50;;
40669;SDS011;26355;45.528;9.234;2022-12-07T09:40:56;25.83;;;17.75;;
40669;SDS011;26355;45.528;9.234;2022-12-07T09:43:22;29.27;;;19.00;;
40669;SDS011;26355;45.528;9.234;2022-12-07T09:45:53;26.65;;;17.65;;
40669;SDS011;26355;45.528;9.234;2022-12-07T09:48:30;27.67;;;18.48;;
40669;SDS011;26355;45.528;9.234;2022-12-07T09:51:02;27.55;;;18.58;;
40669;SDS011;26355;45.528;9.234;2022-12-07T09:53:36;27.30;;;18.30;;
40669;SDS011;26355;45.528;9.234;2022-12-07T09:56:02;28.13;;;20.17;;
40669;SDS011;26355;45.528;9.234;2022-12-07T09:58:30;27.90;;;20.47;;
40669;SDS011;26355;45.528;9.234;2022-12-07T10:01:01;27.77;;;19.23;;
40669;SDS011;26355;45.528;9.234;2022-12-07T10:03:39;30.70;;;20.23;;
40669;SDS011;26355;45.528;9.234;2022-12-07T10:06:10;28.88;;;20.77;;
40669;SDS011;26355;45.528;9.234;2022-12-07T10:08:37;31.02;;;21.30;;
40669;SDS011;26355;45.528;9.234;2022-12-07T10:11:03;30.55;;;21.80;;
40669;SDS011;26355;45.528;9.234;2022-12-07T10:13:43;32.92;;;22.70;;
40669;SDS011;26355;45.528;9.234;2022-12-07T10:18:48;30.90;;;21.15;;
40669;SDS011;26355;45.528;9.234;2022-12-07T10:21:15;30.67;;;20.92;;
40669;SDS011;26355;45.528;9.234;2022-12-07T10:23:42;33.25;;;23.30;;
40669;SDS011;26355;45.528;9.234;2022-12-07T10:34:25;37.63;;;22.63;;
40669;SDS011;26355;45.528;9.234;2022-12-07T10:36:54;30.55;;;21.05;;
40669;SDS011;26355;45.528;9.234;2022-12-07T10:39:44;31.98;;;20.13;;
40669;SDS011;26355;45.528;9.234;2022-12-07T10:42:24;31.95;;;21.45;;
40669;SDS011;26355;45.528;9.234;2022-12-07T10:45:08;38.08;;;23.17;;
40669;SDS011;26355;45.528;9.234;2022-12-07T11:01:23;31.50;;;19.83;;
40669;SDS011;26355;45.528;9.234;2022-12-07T11:04:17;34.15;;;21.13;;
40669;SDS011;26355;45.528;9.234;2022-12-07T11:15:18;34.65;;;21.63;;
40669;SDS011;26355;45.528;9.234;2022-12-07T11:18:10;31.35;;;21.35;;
40669;SDS011;26355;45.528;9.234;2022-12-07T11:32:22;34.97;;;22.70;;
40669;SDS011;26355;45.528;9.234;2022-12-07T11:37:47;33.85;;;22.65;;
40669;SDS011;26355;45.528;9.234;2022-12-07T11:40:21;31.85;;;21.48;;
40669;SDS011;26355;45.528;9.234;2022-12-07T11:42:58;31.13;;;20.17;;
40669;SDS011;26355;45.528;9.234;2022-12-07T11:45:33;30.85;;;19.95;;
40669;SDS011;26355;45.528;9.234;2022-12-07T11:48:03;30.63;;;20.08;;
40669;SDS011;26355;45.528;9.234;2022-12-07T11:50:43;34.03;;;21.38;;
40669;SDS011;26355;45.528;9.234;2022-12-07T11:56:14;27.25;;;17.23;;
40669;SDS011;26355;45.528;9.234;2022-12-07T12:06:36;29.75;;;19.83;;
40669;SDS011;26355;45.528;9.234;2022-12-07T12:09:09;30.92;;;18.77;;
40669;SDS011;26355;45.528;9.234;2022-12-07T12:17:17;29.92;;;19.85;;
40669;SDS011;26355;45.528;9.234;2022-12-07T12:22:46;28.17;;;18.77;;
40669;SDS011;26355;45.528;9.234;2022-12-07T12:25:21;29.30;;;19.80;;
40669;SDS011;26355;45.528;9.234;2022-12-07T12:27:53;29.00;;;20.02;;
40669;SDS011;26355;45.528;9.234;2022-12-07T12:30:29;31.85;;;21.75;;
40669;SDS011;26355;45.528;9.234;2022-12-07T12:33:05;30.52;;;21.23;;
40669;SDS011;26355;45.528;9.234;2022-12-07T12:35:38;33.10;;;20.83;;
40669;SDS011;26355;45.528;9.234;2022-12-07T12:40:54;31.65;;;20.80;;
40669;SDS011;26355;45.528;9.234;2022-12-07T12:50:18;32.22;;;21.92;;
40669;SDS011;26355;45.528;9.234;2022-12-07T12:51:54;32.97;;;21.70;;
40669;SDS011;26355;45.528;9.234;2022-12-07T12:54:22;32.40;;;23.27;;
40669;SDS011;26355;45.528;9.234;2022-12-07T13:01:46;34.38;;;23.63;;
40669;SDS011;26355;45.528;9.234;2022-12-07T13:04:27;34.95;;;23.65;;
40669;SDS011;26355;45.528;9.234;2022-12-07T13:07:02;34.20;;;23.90;;
40669;SDS011;26355;45.528;9.234;2022-12-07T13:09:29;33.85;;;23.50;;
40669;SDS011;26355;45.528;9.234;2022-12-07T13:12:02;34.42;;;24.30;;
40669;SDS011;26355;45.528;9.234;2022-12-07T13:14:51;34.70;;;23.83;;
40669;SDS011;26355;45.528;9.234;2022-12-07T13:25:09;35.70;;;26.23;;
40669;SDS011;26355;45.528;9.234;2022-12-07T13:27:41;40.90;;;29.73;;
40669;SDS011;26355;45.528;9.234;2022-12-07T13:30:17;38.65;;;27.30;;
40669;SDS011;26355;45.528;9.234;2022-12-07T13:32:51;41.38;;;28.80;;
40669;SDS011;26355;45.528;9.234;2022-12-07T13:37:58;39.97;;;27.50;;
40669;SDS011;26355;45.528;9.234;2022-12-07T13:40:27;40.97;;;28.98;;
40669;SDS011;26355;45.528;9.234;2022-12-07T13:43:00;41.58;;;27.80;;
40669;SDS011;26355;45.528;9.234;2022-12-07T13:45:37;42.20;;;29.85;;
40669;SDS011;26355;45.528;9.234;2022-12-07T13:48:49;44.38;;;29.10;;
40669;SDS011;26355;45.528;9.234;2022-12-07T13:51:16;41.80;;;29.67;;
40669;SDS011;26355;45.528;9.234;2022-12-07T13:53:51;45.10;;;30.45;;
40669;SDS011;26355;45.528;9.234;2022-12-07T13:56:26;43.55;;;30.67;;
40669;SDS011;26355;45.528;9.234;2022-12-07T13:58:59;43.17;;;31.05;;
40669;SDS011;26355;45.528;9.234;2022-12-07T14:01:25;41.50;;;30.15;;
40669;SDS011;26355;45.528;9.234;2022-12-07T14:03:51;43.35;;;31.30;;
40669;SDS011;26355;45.528;9.234;2022-12-07T14:06:22;44.78;;;29.67;;
40669;SDS011;26355;45.528;9.234;2022-12-07T14:08:50;45.28;;;30.65;;
40669;SDS011;26355;45.528;9.234;2022-12-07T14:11:30;42.83;;;30.25;;
40669;SDS011;26355;45.528;9.234;2022-12-07T14:14:00;40.92;;;28.98;;
40669;SDS011;26355;45.528;9.234;2022-12-07T14:16:34;39.15;;;28.40;;
40669;SDS011;26355;45.528;9.234;2022-12-07T14:19:05;40.58;;;27.25;;
40669;SDS011;26355;45.528;9.234;2022-12-07T14:22:05;43.70;;;30.00;;
40669;SDS011;26355;45.528;9.234;2022-12-07T14:24:40;41.85;;;29.00;;
40669;SDS011;26355;45.528;9.234;2022-12-07T14:27:16;44.17;;;29.58;;
40669;SDS011;26355;45.528;9.234;2022-12-07T14:29:43;39.72;;;26.70;;
40669;SDS011;26355;45.528;9.234;2022-12-07T14:32:17;39.30;;;26.98;;
40669;SDS011;26355;45.528;9.234;2022-12-07T14:37:25;38.90;;;26.67;;
40669;SDS011;26355;45.528;9.234;2022-12-07T14:39:52;38.20;;;26.60;;
40669;SDS011;26355;45.528;9.234;2022-12-07T14:42:18;41.28;;;26.67;;
40669;SDS011;26355;45.528;9.234;2022-12-07T14:44:44;44.00;;;28.67;;
40669;SDS011;26355;45.528;9.234;2022-12-07T14:47:10;44.17;;;32.63;;
40669;SDS011;26355;45.528;9.234;2022-12-07T14:49:36;42.38;;;27.70;;
40669;SDS011;26355;45.528;9.234;2022-12-07T14:52:02;44.10;;;27.52;;
40669;SDS011;26355;45.528;9.234;2022-12-07T14:54:30;41.70;;;27.60;;
40669;SDS011;26355;45.528;9.234;2022-12-07T14:56:57;39.45;;;26.55;;
40669;SDS011;26355;45.528;9.234;2022-12-07T14:59:23;42.25;;;29.48;;
40669;SDS011;26355;45.528;9.234;2022-12-07T15:01:49;42.15;;;28.17;;
40669;SDS011;26355;45.528;9.234;2022-12-07T15:04:14;40.22;;;26.23;;
40669;SDS011;26355;45.528;9.234;2022-12-07T15:06:40;39.85;;;25.35;;
40669;SDS011;26355;45.528;9.234;2022-12-07T15:09:08;38.20;;;25.75;;
40669;SDS011;26355;45.528;9.234;2022-12-07T15:11:35;36.70;;;24.75;;
40669;SDS011;26355;45.528;9.234;2022-12-07T15:14:01;39.40;;;24.13;;
40669;SDS011;26355;45.528;9.234;2022-12-07T15:16:33;38.50;;;25.23;;
40669;SDS011;26355;45.528;9.234;2022-12-07T15:18:59;37.00;;;24.97;;
40669;SDS011;26355;45.528;9.234;2022-12-07T15:21:25;41.50;;;25.70;;
40669;SDS011;26355;45.528;9.234;2022-12-07T15:23:51;38.38;;;24.88;;
40669;SDS011;26355;45.528;9.234;2022-12-07T15:26:16;38.67;;;25.15;;
40669;SDS011;26355;45.528;9.234;2022-12-07T15:31:19;37.55;;;24.13;;
40669;SDS011;26355;45.528;9.234;2022-12-07T15:36:58;39.70;;;26.25;;
40669;SDS011;26355;45.528;9.234;2022-12-07T15:42:15;37.35;;;25.58;;
40669;SDS011;26355;45.528;9.234;2022-12-07T15:44:40;41.97;;;26.00;;
40669;SDS011;26355;45.528;9.234;2022-12-07T15:47:24;38.38;;;25.90;;
40669;SDS011;26355;45.528;9.234;2022-12-07T15:49:50;41.10;;;25.52;;
40669;SDS011;26355;45.528;9.234;2022-12-07T15:52:16;39.00;;;27.20;;
40669;SDS011;26355;45.528;9.234;2022-12-07T15:54:50;41.25;;;26.85;;
40669;SDS011;26355;45.528;9.234;2022-12-07T15:57:16;40.67;;;25.38;;
40669;SDS011;26355;45.528;9.234;2022-12-07T15:59:43;42.60;;;25.48;;
40669;SDS011;26355;45.528;9.234;2022-12-07T16:02:09;41.35;;;26.85;;
40669;SDS011;26355;45.528;9.234;2022-12-07T16:04:35;44.28;;;26.58;;
40669;SDS011;26355;45.528;9.234;2022-12-07T16:07:01;38.20;;;23.95;;
40669;SDS011;26355;45.528;9.234;2022-12-07T16:09:27;40.05;;;24.08;;
40669;SDS011;26355;45.528;9.234;2022-12-07T16:11:52;40.63;;;26.55;;
40669;SDS011;26355;45.528;9.234;2022-12-07T16:14:18;40.35;;;24.25;;
40669;SDS011;26355;45.528;9.234;2022-12-07T16:16:44;42.80;;;26.02;;
40669;SDS011;26355;45.528;9.234;2022-12-07T16:19:10;43.28;;;25.98;;
40669;SDS011;26355;45.528;9.234;2022-12-07T16:21:36;38.55;;;25.25;;
40669;SDS011;26355;45.528;9.234;2022-12-07T16:24:02;38.38;;;23.60;;
40669;SDS011;26355;45.528;9.234;2022-12-07T16:26:28;34.67;;;21.08;;
40669;SDS011;26355;45.528;9.234;2022-12-07T16:28:54;33.47;;;20.83;;
40669;SDS011;26355;45.528;9.234;2022-12-07T16:31:21;32.00;;;21.10;;
40669;SDS011;26355;45.528;9.234;2022-12-07T16:33:48;35.92;;;20.85;;
40669;SDS011;26355;45.528;9.234;2022-12-07T16:36:23;32.47;;;19.52;;
40669;SDS011;26355;45.528;9.234;2022-12-07T16:38:51;32.85;;;20.33;;
40669;SDS011;26355;45.528;9.234;2022-12-07T16:41:16;31.50;;;19.92;;
40669;SDS011;26355;45.528;9.234;2022-12-07T16:43:42;33.75;;;20.05;;
40669;SDS011;26355;45.528;9.234;2022-12-07T16:46:08;45.60;;;24.10;;
40669;SDS011;26355;45.528;9.234;2022-12-07T16:48:35;35.00;;;23.27;;